Time;durP1;ratioP1;P1;durP2;ratioP2;P2;SDS_P1;SDS_P2;PMS_P1;PMS_P2;Temp;Humidity;BMP_temperature;BMP_pressure;BME280_temperature;BME280_humidity;BME280_pressure;Samples;Min_cycle;Max_cycle;Signal;HPM_P1;HPM_P2
2020/12/15 17:16:51;;;;;;;3.80;2.00;;;;;;;7.83;100.00;95678.94;4360664;32;21972;-74
2020/12/15 17:19:16;;;;;;;3.07;1.93;;;;;;;7.83;100.00;95686.66;4375496;32;20235;-73
2020/12/15 17:21:42;;;;;;;4.87;3.10;;;;;;;7.72;100.00;95695.81;4378194;32;20306;-74
2020/12/15 17:24:08;;;;;;;4.23;3.13;;;;;;;7.68;100.00;95694.31;4378053;32;20652;-72
2020/12/15 17:26:33;;;;;;;3.60;2.40;;;;;;;7.67;100.00;95694.34;4378205;32;20287;-74
2020/12/15 17:28:59;;;;;;;4.47;2.45;;;;;;;7.60;100.00;95696.44;4377247;32;20292;-73
2020/12/15 17:31:25;;;;;;;2.70;1.85;;;;;;;7.61;100.00;95694.69;4377651;32;20235;-74
2020/12/15 17:33:50;;;;;;;1.98;1.67;;;;;;;7.60;100.00;95700.75;4381510;32;20278;-74
2020/12/15 17:36:16;;;;;;;2.83;1.73;;;;;;;7.59;100.00;95706.81;4386115;32;20301;-74
2020/12/15 17:38:43;;;;;;;2.77;1.83;;;;;;;7.57;100.00;95706.09;4394267;32;20245;-74
2020/12/15 17:41:09;;;;;;;3.40;1.92;;;;;;;7.56;100.00;95707.81;4391165;32;20302;-73
2020/12/15 17:43:35;;;;;;;2.30;1.73;;;;;;;7.56;100.00;95707.81;4343395;32;20750;-72
2020/12/15 17:46:00;;;;;;;2.22;1.95;;;;;;;7.51;100.00;95713.19;4353138;32;20275;-74
2020/12/15 17:48:26;;;;;;;2.55;2.35;;;;;;;7.51;100.00;95713.19;4358384;32;20935;-74
2020/12/15 17:50:51;;;;;;;3.25;1.85;;;;;;;7.50;100.00;95713.28;4350801;32;20617;-74
2020/12/15 17:53:17;;;;;;;2.03;1.80;;;;;;;7.50;100.00;95721.03;4361541;32;20663;-74
2020/12/15 17:55:43;;;;;;;2.47;1.90;;;;;;;7.50;100.00;95715.88;4344546;32;20637;-74
2020/12/15 17:58:08;;;;;;;2.43;1.83;;;;;;;7.49;100.00;95715.03;4363847;32;20671;-73
2020/12/15 18:00:34;;;;;;;2.47;1.97;;;;;;;7.49;100.00;95715.03;4364146;32;20234;-74
2020/12/15 18:03:00;;;;;;;2.57;1.80;;;;;;;7.47;100.00;95711.69;4365599;32;20655;-72
2020/12/15 18:05:26;;;;;;;2.10;1.75;;;;;;;7.46;100.00;95712.63;4371360;32;20681;-73
2020/12/15 18:07:51;;;;;;;4.75;3.00;;;;;;;7.46;100.00;95714.38;4369136;32;20222;-73
2020/12/15 18:10:17;;;;;;;2.20;1.83;;;;;;;7.48;100.00;95715.94;4370083;32;20264;-74
2020/12/15 18:12:43;;;;;;;1.77;1.63;;;;;;;7.47;100.00;95718.59;4375284;32;20289;-74
2020/12/15 18:15:09;;;;;;;3.55;2.35;;;;;;;7.46;100.00;95716.94;4372342;32;20244;-74
2020/12/15 18:17:35;;;;;;;4.50;3.37;;;;;;;7.42;100.00;95723.16;4351493;32;20570;-73
2020/12/15 18:20:00;;;;;;;4.75;3.17;;;;;;;7.44;100.00;95718.75;4362004;32;20618;-73
2020/12/15 18:22:26;;;;;;;2.80;2.50;;;;;;;7.43;100.00;95720.50;4371821;32;20251;-74
2020/12/15 18:24:52;;;;;;;4.53;4.10;;;;;;;7.42;100.00;95721.41;4369194;32;20259;-73
2020/12/15 18:27:17;;;;;;;9.37;6.13;;;;;;;7.43;100.00;95727.41;4370986;32;20262;-73
2020/12/15 18:29:43;;;;;;;4.13;3.33;;;;;;;7.40;100.00;95727.56;4370781;32;20270;-73
2020/12/15 18:32:09;;;;;;;3.13;2.83;;;;;;;7.40;100.00;95732.72;4371228;32;20238;-72
2020/12/15 18:34:34;;;;;;;4.20;2.75;;;;;;;7.41;100.00;95740.34;4370643;32;20314;-74
2020/12/15 18:37:00;;;;;;;3.37;2.50;;;;;;;7.40;100.00;95743.00;4370938;32;20235;-74
2020/12/15 18:39:26;;;;;;;3.10;2.70;;;;;;;7.38;100.00;95734.50;4353768;32;20232;-74
2020/12/15 18:41:51;;;;;;;4.47;3.20;;;;;;;7.35;100.00;95738.09;4326778;33;20244;-73
2020/12/15 18:44:17;;;;;;;5.37;4.00;;;;;;;7.34;100.00;95741.59;4326583;33;20243;-71
2020/12/15 18:46:42;;;;;;;3.63;3.17;;;;;;;7.32;100.00;95751.12;4339468;33;20331;-74
2020/12/15 18:49:08;;;;;;;3.07;2.13;;;;;;;7.31;100.00;95756.37;4336265;33;20236;-74
2020/12/15 18:51:34;;;;;;;15.30;10.23;;;;;;;7.31;100.00;95751.22;4326676;33;20228;-74
2020/12/15 18:53:59;;;;;;;12.05;7.50;;;;;;;7.32;100.00;95743.41;4325834;33;20244;-73
2020/12/15 18:56:25;;;;;;;5.22;3.80;;;;;;;7.39;100.00;95731.88;4326318;33;20256;-73
2020/12/15 18:58:51;;;;;;;6.12;3.50;;;;;;;7.41;100.00;95732.63;4326642;33;20299;-74
2020/12/15 19:01:16;;;;;;;4.37;3.23;;;;;;;7.33;100.00;95733.94;4339931;33;20246;-74
2020/12/15 19:03:42;;;;;;;5.37;3.33;;;;;;;7.28;100.00;95737.56;4344068;33;20288;-73
2020/12/15 19:06:07;;;;;;;4.67;3.10;;;;;;;7.30;100.00;95737.47;4343717;33;20246;-74
2020/12/15 19:08:33;;;;;;;3.20;2.70;;;;;;;7.29;100.00;95740.97;4346977;32;20254;-74
2020/12/15 19:10:59;;;;;;;3.00;2.70;;;;;;;7.26;100.00;95739.38;4374257;32;20239;-74
2020/12/15 19:13:24;;;;;;;3.87;3.30;;;;;;;7.23;100.00;95734.41;4373857;32;20281;-74
2020/12/15 19:15:50;;;;;;;3.72;3.30;;;;;;;7.20;100.00;95738.88;4364350;32;20244;-72
2020/12/15 19:18:16;;;;;;;4.18;3.70;;;;;;;7.22;100.00;95739.63;4358657;33;20263;-74
2020/12/15 19:20:41;;;;;;;4.93;2.87;;;;;;;7.16;100.00;95737.38;4358533;33;20251;-74
2020/12/15 19:23:07;;;;;;;4.40;3.07;;;;;;;7.14;100.00;95729.69;4359267;32;20263;-74
2020/12/15 19:25:32;;;;;;;2.87;2.67;;;;;;;7.12;100.00;95731.53;4372609;32;20297;-73
2020/12/15 19:27:58;;;;;;;3.30;2.70;;;;;;;7.08;100.00;95724.84;4373081;32;20284;-73
2020/12/15 19:30:24;;;;;;;3.55;2.97;;;;;;;7.07;100.00;95733.47;4367236;32;20282;-73
2020/12/15 19:32:49;;;;;;;3.47;2.75;;;;;;;7.01;100.00;95728.66;4358587;33;20251;-73
2020/12/15 19:35:15;;;;;;;4.32;3.33;;;;;;;7.00;100.00;95740.66;4358054;33;20267;-73
2020/12/15 19:37:41;;;;;;;5.70;4.43;;;;;;;6.96;100.00;95738.31;4345692;33;20230;-73
2020/12/15 19:40:06;;;;;;;6.57;4.90;;;;;;;6.93;100.00;95743.62;4368430;32;20242;-74
2020/12/15 19:42:32;;;;;;;5.17;4.10;;;;;;;6.91;100.00;95742.88;4373675;32;20273;-74
2020/12/15 19:44:58;;;;;;;5.20;4.70;;;;;;;6.87;100.00;95744.78;4362562;32;20240;-73
2020/12/15 19:47:23;;;;;;;5.22;4.45;;;;;;;6.84;100.00;95737.19;4328450;33;20267;-72
2020/12/15 19:49:49;;;;;;;9.60;6.60;;;;;;;6.78;100.00;95743.44;4365000;32;20267;-73
2020/12/15 19:52:14;;;;;;;11.20;9.60;;;;;;;6.77;100.00;95739.22;4387927;32;20280;-73
2020/12/15 19:54:40;;;;;;;32.30;12.67;;;;;;;6.76;100.00;95735.00;4367097;32;20242;-73
2020/12/15 19:57:06;;;;;;;67.80;10.53;;;;;;;6.67;100.00;95740.56;4343369;33;20238;-74
2020/12/15 19:59:33;;;;;;;61.27;8.57;;;;;;;6.60;100.00;95744.38;4344347;32;20238;-73
2020/12/15 20:01:58;;;;;;;106.45;7.90;;;;;;;6.59;100.00;95741.84;4372888;32;20654;-73
2020/12/15 20:04:24;;;;;;;142.50;8.33;;;;;;;6.55;100.00;95751.44;4372971;32;20238;-73
2020/12/15 20:06:50;;;;;;;53.07;4.97;;;;;;;6.52;100.00;95752.41;4372268;32;20243;-73
2020/12/15 20:09:15;;;;;;;74.97;6.27;;;;;;;6.54;100.00;95752.38;4346831;32;20242;-74
2020/12/15 20:11:41;;;;;;;138.37;7.87;;;;;;;6.52;100.00;95755.00;4342710;33;20238;-74
2020/12/15 20:14:07;;;;;;;183.40;10.48;;;;;;;6.46;100.00;95757.03;4343090;33;20246;-74
2020/12/15 20:16:34;;;;;;;62.28;6.87;;;;;;;6.45;100.00;95758.78;4354804;32;20264;-73
2020/12/15 20:19:00;;;;;;;49.13;6.32;;;;;;;6.48;100.00;95762.94;4353293;32;20250;-73
2020/12/15 20:21:26;;;;;;;32.07;5.27;;;;;;;6.46;100.00;95773.31;4342880;33;20595;-73
2020/12/15 20:23:53;;;;;;;23.77;5.40;;;;;;;6.46;100.00;95770.72;4349035;32;20939;-73
2020/12/15 20:26:19;;;;;;;45.25;4.72;;;;;;;6.45;100.00;95769.06;4372232;32;20273;-73
2020/12/15 20:28:45;;;;;;;128.75;10.23;;;;;;;6.42;100.00;95771.78;4372532;32;20647;-73
2020/12/15 20:31:13;;;;;;;44.13;8.37;;;;;;;6.35;100.00;95770.41;4351121;32;20242;-73
2020/12/15 20:33:39;;;;;;;26.80;7.15;;;;;;;6.39;100.00;95779.63;4342818;33;20968;-70
2020/12/15 20:36:04;;;;;;;37.30;8.50;;;;;;;6.42;100.00;95776.09;4344270;33;20241;-74
2020/12/15 20:38:30;;;;;;;38.97;8.43;;;;;;;6.43;100.00;95780.34;4349212;32;20256;-73
2020/12/15 20:40:55;;;;;;;10.93;6.97;;;;;;;6.39;100.00;95779.63;4342899;33;20265;-74
2020/12/15 20:43:21;;;;;;;36.43;8.27;;;;;;;6.35;100.00;95775.53;4342940;33;20292;-73
2020/12/15 20:45:47;;;;;;;88.78;8.68;;;;;;;6.41;100.00;95776.97;4349702;32;20260;-73
2020/12/15 20:48:12;;;;;;;13.20;6.47;;;;;;;6.42;100.00;95782.06;4357330;32;20699;-72
2020/12/15 20:50:38;;;;;;;13.27;7.12;;;;;;;6.41;100.00;95775.25;4357277;32;20686;-73
2020/12/15 20:53:04;;;;;;;25.10;6.70;;;;;;;6.41;100.00;95770.09;4355465;32;20736;-76
2020/12/15 20:55:29;;;;;;;45.40;7.77;;;;;;;6.42;100.00;95766.62;4351781;33;20241;-72
2020/12/15 20:57:55;;;;;;;21.97;6.10;;;;;;;6.33;100.00;95761.06;4364253;32;20239;-73
2020/12/15 21:00:21;;;;;;;36.13;6.10;;;;;;;6.28;100.00;95762.13;4366448;32;20271;-73
2020/12/15 21:02:46;;;;;;;18.60;5.35;;;;;;;6.42;100.00;95764.06;4356820;33;20244;-72
2020/12/15 21:05:12;;;;;;;31.47;7.20;;;;;;;6.40;100.00;95765.88;4356811;33;20279;-73
2020/12/15 21:07:38;;;;;;;24.40;7.87;;;;;;;6.54;100.00;95766.06;4356675;33;20578;-72
2020/12/15 21:10:03;;;;;;;31.43;10.70;;;;;;;6.39;100.00;95768.53;4349174;33;20435;-72
2020/12/15 21:12:29;;;;;;;28.48;11.85;;;;;;;6.52;100.00;95767.03;4357391;32;20530;-73
2020/12/15 21:14:54;;;;;;;27.65;12.40;;;;;;;6.40;100.00;95781.28;4353695;32;20705;-72
